^^
Meteo Knjazevac Station Historical Data
Daily Summary for October 19, 2021 Units:  English    Metric   Both
Daily Weekly Monthly Yearly Custom
  High: Low: Average:
Temperature: 57.4 °F 36.9 °F 44.9 °F
Dew Point: 50 °F 36.5 °F 42.9 °F
Humidity: 99% 75% 93%
Wind Speed: 3mph 0mph 1.1mph
Wind Gust: 8mph - -
Wind- - West
Pressure: 30.43 in 30.38 in -
Precipitation: 0.00 in    
Historical Graphs
 
 
Tabular Data for October 19, 2021
Time Temperature Dew Point Pressure Wind Wind Speed Wind Gust Humidity Rainfall Rate (Hourly) solar Conditions
00:00 42.4 °F 41.4 °F 30.38 in Calm   3 mph 96% 0.00 in 0 W/m2
00:10 42.3 °F 41.7 °F 30.38 in Calm   4 mph 98% 0.00 in 0 W/m2
00:20 42.1 °F 41.6 °F 30.38 in Calm   2 mph 98% 0.00 in 0 W/m2
00:30 41.9 °F 41.4 °F 30.38 in Calm   3 mph 98% 0.00 in 0 W/m2
00:40 41.5 °F 40.5 °F 30.38 in Calm   2 mph 96% 0.00 in 0 W/m2
00:50 41.4 °F 40.8 °F 30.38 in NW 1 mph 2 mph 98% 0.00 in 0 W/m2
01:00 41.2 °F 40.7 °F 30.38 in Calm   2 mph 98% 0.00 in 0 W/m2
01:10 41.2 °F 40.6 °F 30.38 in NNW 1 mph 3 mph 98% 0.00 in 0 W/m2
01:20 41 °F 40.5 °F 30.39 in Calm   3 mph 98% 0.00 in 0 W/m2
01:30 40.8 °F 40.3 °F 30.39 in West 1 mph 3 mph 98% 0.00 in 0 W/m2
01:40 40.8 °F 40.3 °F 30.39 in Calm   2 mph 98% 0.00 in 0 W/m2
01:50 40.4 °F 39.9 °F 30.39 in WNW 1 mph 3 mph 98% 0.00 in 0 W/m2
02:00 40.1 °F 39.6 °F 30.39 in NW 1 mph 3 mph 98% 0.00 in 0 W/m2
02:10 39.7 °F 39.2 °F 30.39 in WNW 2 mph 3 mph 98% 0.00 in 0 W/m2
02:20 39.4 °F 38.9 °F 30.39 in West 1 mph 3 mph 98% 0.00 in 0 W/m2
02:30 39 °F 38.5 °F 30.39 in West 2 mph 4 mph 98% 0.00 in 0 W/m2
02:40 39 °F 38.7 °F 30.39 in Calm   3 mph 99% 0.00 in 0 W/m2
02:50 38.8 °F 38.6 °F 30.39 in NW 1 mph 3 mph 99% 0.00 in 0 W/m2
03:00 38.5 °F 38.2 °F 30.38 in NW 1 mph 3 mph 99% 0.00 in 0 W/m2
03:10 38.5 °F 38.2 °F 30.38 in Calm   2 mph 99% 0.00 in 0 W/m2
03:20 38.1 °F 37.9 °F 30.38 in NW 1 mph 3 mph 99% 0.00 in 0 W/m2
03:30 37.9 °F 37.4 °F 30.38 in WNW 2 mph 5 mph 98% 0.00 in 0 W/m2
03:40 37.5 °F 37 °F 30.39 in WNW 1 mph 3 mph 98% 0.00 in 0 W/m2
03:50 37.2 °F 36.7 °F 30.39 in WNW 1 mph 3 mph 98% 0.00 in 0 W/m2
04:00 37 °F 36.5 °F 30.38 in WNW 1 mph 4 mph 98% 0.00 in 0 W/m2
04:10 36.9 °F 36.6 °F 30.39 in NW 1 mph 3 mph 99% 0.00 in 0 W/m2
04:20 36.9 °F 36.6 °F 30.39 in West 2 mph 3 mph 99% 0.00 in 0 W/m2
04:30 36.9 °F 36.6 °F 30.39 in NNW 1 mph 3 mph 99% 0.00 in 0 W/m2
04:40 37 °F 36.8 °F 30.39 in West 1 mph 2 mph 99% 0.00 in 0 W/m2
04:50 36.9 °F 36.6 °F 30.39 in Calm   2 mph 99% 0.00 in 0 W/m2
05:00 36.9 °F 36.6 °F 30.39 in WNW 1 mph 5 mph 99% 0.00 in 0 W/m2
05:10 36.9 °F 36.6 °F 30.39 in West 2 mph 5 mph 99% 0.00 in 0 W/m2
05:20 36.9 °F 36.6 °F 30.39 in West 2 mph 4 mph 99% 0.00 in 0 W/m2
05:30 37.1 °F 36.8 °F 30.39 in WNW 2 mph 5 mph 99% 0.00 in 0 W/m2
05:40 37.2 °F 37 °F 30.40 in NW 1 mph 3 mph 99% 0.00 in 0 W/m2
05:50 37.4 °F 37.2 °F 30.40 in WNW 1 mph 4 mph 99% 0.00 in 0 W/m2
06:00 37.8 °F 37.5 °F 30.40 in WNW 2 mph 5 mph 99% 0.00 in 0 W/m2
06:10 37.9 °F 37.7 °F 30.40 in West 2 mph 5 mph 99% 0.00 in 0 W/m2
06:20 38.1 °F 37.9 °F 30.41 in WNW 1 mph 3 mph 99% 0.00 in 0 W/m2
06:30 38.1 °F 37.9 °F 30.41 in Calm   3 mph 99% 0.00 in 0 W/m2
06:40 38.4 °F 38.2 °F 30.41 in West 2 mph 3 mph 99% 0.00 in 0 W/m2
06:50 38.7 °F 38.4 °F 30.41 in West 1 mph 2 mph 99% 0.00 in 2 W/m2
07:00 39 °F 38.8 °F 30.41 in WNW 2 mph 4 mph 99% 0.00 in 5 W/m2
07:10 39.4 °F 39.1 °F 30.41 in NNW 1 mph 2 mph 99% 0.00 in 8 W/m2
07:20 39.6 °F 39.3 °F 30.41 in West 1 mph 3 mph 99% 0.00 in 14 W/m2
07:30 39.7 °F 39.5 °F 30.41 in West 2 mph 3 mph 99% 0.00 in 20 W/m2
07:40 40.1 °F 39.8 °F 30.42 in WNW 1 mph 3 mph 99% 0.00 in 29 W/m2
07:50 40.5 °F 40.2 °F 30.42 in WNW 1 mph 4 mph 99% 0.00 in 41 W/m2
08:00 41 °F 40.7 °F 30.42 in West 1 mph 4 mph 99% 0.00 in 51 W/m2
08:10 41.2 °F 41 °F 30.42 in West 2 mph 2 mph 99% 0.00 in 52 W/m2
08:20 41.5 °F 41.3 °F 30.43 in WNW 2 mph 4 mph 99% 0.00 in 51 W/m2
08:30 41.9 °F 41.7 °F 30.43 in Calm   2 mph 99% 0.00 in 56 W/m2
08:40 42.4 °F 42.2 °F 30.43 in West 1 mph 2 mph 99% 0.00 in 46 W/m2
08:50 42.8 °F 42.5 °F 30.43 in WNW 1 mph 2 mph 99% 0.00 in 71 W/m2
09:00 43.2 °F 42.9 °F 30.43 in WSW 1 mph 2 mph 99% 0.00 in 84 W/m2
09:10 43.3 °F 43.1 °F 30.43 in SW 1 mph 3 mph 99% 0.00 in 85 W/m2
09:20 43.7 °F 43.4 °F 30.43 in Calm   1 mph 99% 0.00 in 100 W/m2
09:30 44.3 °F 44 °F 30.43 in Calm   2 mph 99% 0.00 in 127 W/m2
09:40 45 °F 44.7 °F 30.43 in Calm   1 mph 99% 0.00 in 146 W/m2
09:50 45.7 °F 45.5 °F 30.43 in West 1 mph 2 mph 99% 0.00 in 149 W/m2
10:00 46.4 °F 46.1 °F 30.43 in Calm   2 mph 99% 0.00 in 168 W/m2
10:10 46.9 °F 46.7 °F 30.43 in Calm   2 mph 99% 0.00 in 167 W/m2
10:20 47.7 °F 47.4 °F 30.43 in Calm   2 mph 99% 0.00 in 164 W/m2
10:30 48.2 °F 47.1 °F 30.43 in Calm   2 mph 96% 0.00 in 192 W/m2
10:40 48.8 °F 47.7 °F 30.43 in Calm   2 mph 96% 0.00 in 192 W/m2
10:50 49.5 °F 48.1 °F 30.43 in WNW 1 mph 1 mph 95% 0.00 in 197 W/m2
11:00 50.2 °F 48.9 °F 30.43 in Calm   2 mph 95% 0.00 in 216 W/m2
11:10 51 °F 49 °F 30.43 in SSW 1 mph 2 mph 93% 0.00 in 232 W/m2
11:20 51.8 °F 49 °F 30.43 in Calm   3 mph 90% 0.00 in 252 W/m2
11:30 52.3 °F 49.2 °F 30.43 in Calm   2 mph 89% 0.00 in 216 W/m2
11:40 52.9 °F 49.5 °F 30.43 in SW 1 mph 3 mph 88% 0.00 in 219 W/m2
11:50 53.5 °F 49.4 °F 30.43 in SW 1 mph 4 mph 86% 0.00 in 208 W/m2
12:00 54 °F 49.3 °F 30.43 in SW 3 mph 8 mph 84% 0.00 in 196 W/m2
12:10 54.3 °F 49.6 °F 30.43 in WSW 3 mph 6 mph 84% 0.00 in 173 W/m2
12:20 54.5 °F 49.4 °F 30.43 in SW 3 mph 6 mph 83% 0.00 in 157 W/m2
12:30 54.7 °F 49.6 °F 30.42 in SW 3 mph 5 mph 83% 0.00 in 166 W/m2
12:40 54.9 °F 49.1 °F 30.42 in SW 3 mph 7 mph 81% 0.00 in 168 W/m2
12:50 54.9 °F 49.2 °F 30.42 in SW 3 mph 6 mph 81% 0.00 in 187 W/m2
13:00 55.2 °F 49.2 °F 30.42 in SW 3 mph 6 mph 80% 0.00 in 197 W/m2
13:10 55.4 °F 49.3 °F 30.41 in SW 2 mph 5 mph 80% 0.00 in 205 W/m2
13:20 55.8 °F 49.7 °F 30.41 in SW 2 mph 5 mph 80% 0.00 in 213 W/m2
13:30 56.1 °F 50 °F 30.41 in SW 3 mph 5 mph 80% 0.00 in 216 W/m2
13:40 56.3 °F 49.9 °F 30.41 in SSW 3 mph 6 mph 79% 0.00 in 235 W/m2
13:50 56.5 °F 49.7 °F 30.40 in SSW 1 mph 5 mph 78% 0.00 in 236 W/m2
14:00 56.7 °F 49.5 °F 30.40 in SSW 2 mph 5 mph 77% 0.00 in 216 W/m2
14:10 57 °F 49.9 °F 30.40 in SSW 2 mph 3 mph 77% 0.00 in 196 W/m2
14:20 57.2 °F 49.3 °F 30.40 in SW 2 mph 4 mph 75% 0.00 in 189 W/m2
14:30 57.4 °F 49.5 °F 30.40 in WSW 2 mph 4 mph 75% 0.00 in 142 W/m2
14:40 57.4 °F 49.5 °F 30.40 in WSW 1 mph 3 mph 75% 0.00 in 120 W/m2
14:50 57.2 °F 49.3 °F 30.40 in NNW 2 mph 3 mph 75% 0.00 in 101 W/m2
15:00 57.2 °F 49.7 °F 30.40 in NNW 1 mph 2 mph 76% 0.00 in 106 W/m2
15:10 57.2 °F 49.7 °F 30.40 in Calm   2 mph 76% 0.00 in 108 W/m2
15:20 57.2 °F 49.7 °F 30.40 in SW 1 mph 2 mph 76% 0.00 in 93 W/m2
15:30 57.1 °F 49.3 °F 30.40 in Calm   3 mph 75% 0.00 in 95 W/m2
Knjazevac, Serbia
Compliments of Weather Underground - 2 mb